sensor_id;sensor_type;location;lat;lon;timestamp;temperature;humidity
20125;DHT22;10223;50.862;4.360;2023-08-31T00:01:01;13.20;99.90
20125;DHT22;10223;50.862;4.360;2023-08-31T00:03:30;13.10;99.90
20125;DHT22;10223;50.862;4.360;2023-08-31T00:05:57;13.10;99.90
20125;DHT22;10223;50.862;4.360;2023-08-31T00:08:24;13.10;99.90
20125;DHT22;10223;50.862;4.360;2023-08-31T00:10:57;13.10;99.90
20125;DHT22;10223;50.862;4.360;2023-08-31T00:13:24;13.10;99.90
20125;DHT22;10223;50.862;4.360;2023-08-31T00:15:54;13.10;99.90
20125;DHT22;10223;50.862;4.360;2023-08-31T00:18:21;13.00;99.90
20125;DHT22;10223;50.862;4.360;2023-08-31T00:20:49;13.10;99.90
20125;DHT22;10223;50.862;4.360;2023-08-31T00:23:16;13.10;99.90
20125;DHT22;10223;50.862;4.360;2023-08-31T00:25:44;13.20;99.90
20125;DHT22;10223;50.862;4.360;2023-08-31T00:28:11;13.10;99.90
20125;DHT22;10223;50.862;4.360;2023-08-31T00:30:41;13.10;99.90
20125;DHT22;10223;50.862;4.360;2023-08-31T00:33:10;13.20;99.90
20125;DHT22;10223;50.862;4.360;2023-08-31T00:35:37;13.20;99.90
20125;DHT22;10223;50.862;4.360;2023-08-31T00:38:08;13.20;99.90
20125;DHT22;10223;50.862;4.360;2023-08-31T00:40:38;13.30;99.90
20125;DHT22;10223;50.862;4.360;2023-08-31T00:43:07;13.10;99.90
20125;DHT22;10223;50.862;4.360;2023-08-31T00:45:35;13.20;99.90
20125;DHT22;10223;50.862;4.360;2023-08-31T00:48:02;13.20;99.90
20125;DHT22;10223;50.862;4.360;2023-08-31T00:50:29;13.20;99.90
20125;DHT22;10223;50.862;4.360;2023-08-31T00:52:56;13.10;99.90
20125;DHT22;10223;50.862;4.360;2023-08-31T00:55:24;13.20;99.90
20125;DHT22;10223;50.862;4.360;2023-08-31T00:57:52;13.10;99.90
20125;DHT22;10223;50.862;4.360;2023-08-31T01:00:19;13.10;99.90
20125;DHT22;10223;50.862;4.360;2023-08-31T01:02:54;13.20;99.90
20125;DHT22;10223;50.862;4.360;2023-08-31T01:05:31;13.20;99.90
20125;DHT22;10223;50.862;4.360;2023-08-31T01:08:12;13.20;99.90
20125;DHT22;10223;50.862;4.360;2023-08-31T01:10:47;13.20;99.90
20125;DHT22;10223;50.862;4.360;2023-08-31T01:13:15;13.30;99.90
20125;DHT22;10223;50.862;4.360;2023-08-31T01:15:52;13.20;99.90
20125;DHT22;10223;50.862;4.360;2023-08-31T01:18:22;13.20;99.90
20125;DHT22;10223;50.862;4.360;2023-08-31T01:20:55;13.30;99.90
20125;DHT22;10223;50.862;4.360;2023-08-31T01:23:30;13.30;99.90
20125;DHT22;10223;50.862;4.360;2023-08-31T01:26:01;13.30;99.90
20125;DHT22;10223;50.862;4.360;2023-08-31T01:28:29;13.30;99.90
20125;DHT22;10223;50.862;4.360;2023-08-31T01:30:57;13.20;99.90
20125;DHT22;10223;50.862;4.360;2023-08-31T01:33:23;13.20;99.90
20125;DHT22;10223;50.862;4.360;2023-08-31T01:35:53;13.20;99.90
20125;DHT22;10223;50.862;4.360;2023-08-31T01:38:26;13.20;99.90
20125;DHT22;10223;50.862;4.360;2023-08-31T01:40:57;13.20;99.90
20125;DHT22;10223;50.862;4.360;2023-08-31T01:43:28;13.30;99.90
20125;DHT22;10223;50.862;4.360;2023-08-31T01:45:55;13.20;99.90
20125;DHT22;10223;50.862;4.360;2023-08-31T01:48:24;13.10;99.90
20125;DHT22;10223;50.862;4.360;2023-08-31T01:50:50;13.10;99.90
20125;DHT22;10223;50.862;4.360;2023-08-31T01:53:17;13.10;99.90
20125;DHT22;10223;50.862;4.360;2023-08-31T01:55:46;13.10;99.90
20125;DHT22;10223;50.862;4.360;2023-08-31T01:58:12;13.10;99.90
20125;DHT22;10223;50.862;4.360;2023-08-31T02:00:41;13.10;99.90
20125;DHT22;10223;50.862;4.360;2023-08-31T02:03:08;13.20;99.90
20125;DHT22;10223;50.862;4.360;2023-08-31T02:05:35;13.10;99.90
20125;DHT22;10223;50.862;4.360;2023-08-31T02:08:02;13.20;99.90
20125;DHT22;10223;50.862;4.360;2023-08-31T02:10:29;13.20;99.90
20125;DHT22;10223;50.862;4.360;2023-08-31T02:12:56;13.20;99.90
20125;DHT22;10223;50.862;4.360;2023-08-31T02:15:23;13.10;99.90
20125;DHT22;10223;50.862;4.360;2023-08-31T02:17:52;13.20;99.90
20125;DHT22;10223;50.862;4.360;2023-08-31T02:20:19;13.10;99.90
20125;DHT22;10223;50.862;4.360;2023-08-31T02:22:46;13.10;99.90
20125;DHT22;10223;50.862;4.360;2023-08-31T02:25:14;13.10;99.90
20125;DHT22;10223;50.862;4.360;2023-08-31T02:27:42;13.10;99.90
20125;DHT22;10223;50.862;4.360;2023-08-31T02:30:09;13.10;99.90
20125;DHT22;10223;50.862;4.360;2023-08-31T02:32:36;13.10;99.90
20125;DHT22;10223;50.862;4.360;2023-08-31T02:35:05;13.20;99.90
20125;DHT22;10223;50.862;4.360;2023-08-31T02:37:32;13.20;99.90
20125;DHT22;10223;50.862;4.360;2023-08-31T02:39:59;13.20;99.90
20125;DHT22;10223;50.862;4.360;2023-08-31T02:42:26;13.20;99.90
20125;DHT22;10223;50.862;4.360;2023-08-31T02:44:53;13.20;99.90
20125;DHT22;10223;50.862;4.360;2023-08-31T02:47:20;13.20;99.90
20125;DHT22;10223;50.862;4.360;2023-08-31T02:49:47;13.30;99.90
20125;DHT22;10223;50.862;4.360;2023-08-31T02:52:15;13.20;99.90
20125;DHT22;10223;50.862;4.360;2023-08-31T02:54:42;13.10;99.90
20125;DHT22;10223;50.862;4.360;2023-08-31T02:57:09;13.10;99.90
20125;DHT22;10223;50.862;4.360;2023-08-31T02:59:36;13.10;99.90
20125;DHT22;10223;50.862;4.360;2023-08-31T03:02:04;13.10;99.90
20125;DHT22;10223;50.862;4.360;2023-08-31T03:04:31;13.10;99.90
20125;DHT22;10223;50.862;4.360;2023-08-31T03:06:57;13.10;99.90
20125;DHT22;10223;50.862;4.360;2023-08-31T03:09:26;13.10;99.90
20125;DHT22;10223;50.862;4.360;2023-08-31T03:11:52;13.10;99.90
20125;DHT22;10223;50.862;4.360;2023-08-31T03:14:19;13.20;99.90
20125;DHT22;10223;50.862;4.360;2023-08-31T03:16:46;13.20;99.90
20125;DHT22;10223;50.862;4.360;2023-08-31T03:19:14;13.20;99.90
20125;DHT22;10223;50.862;4.360;2023-08-31T03:21:41;13.20;99.90
20125;DHT22;10223;50.862;4.360;2023-08-31T03:24:08;13.20;99.90
20125;DHT22;10223;50.862;4.360;2023-08-31T03:26:36;13.20;99.90
20125;DHT22;10223;50.862;4.360;2023-08-31T03:29:03;13.20;99.90
20125;DHT22;10223;50.862;4.360;2023-08-31T03:31:30;13.30;99.90
20125;DHT22;10223;50.862;4.360;2023-08-31T03:33:57;13.20;99.90
20125;DHT22;10223;50.862;4.360;2023-08-31T03:36:24;13.10;99.90
20125;DHT22;10223;50.862;4.360;2023-08-31T03:38:51;13.20;99.90
20125;DHT22;10223;50.862;4.360;2023-08-31T03:41:18;13.20;99.90
20125;DHT22;10223;50.862;4.360;2023-08-31T03:43:46;13.20;99.90
20125;DHT22;10223;50.862;4.360;2023-08-31T03:46:13;13.20;99.90
20125;DHT22;10223;50.862;4.360;2023-08-31T03:48:40;13.10;99.90
20125;DHT22;10223;50.862;4.360;2023-08-31T03:51:06;13.20;99.90
20125;DHT22;10223;50.862;4.360;2023-08-31T03:53:33;13.10;99.90
20125;DHT22;10223;50.862;4.360;2023-08-31T03:56:00;13.10;99.90
20125;DHT22;10223;50.862;4.360;2023-08-31T03:58:29;13.10;99.90
20125;DHT22;10223;50.862;4.360;2023-08-31T04:00:57;13.20;99.90
20125;DHT22;10223;50.862;4.360;2023-08-31T04:03:24;13.20;99.90
20125;DHT22;10223;50.862;4.360;2023-08-31T04:05:54;13.20;99.90
20125;DHT22;10223;50.862;4.360;2023-08-31T04:08:21;13.20;99.90
20125;DHT22;10223;50.862;4.360;2023-08-31T04:10:48;13.20;99.90
20125;DHT22;10223;50.862;4.360;2023-08-31T04:13:15;13.20;99.90
20125;DHT22;10223;50.862;4.360;2023-08-31T04:15:41;13.20;99.90
20125;DHT22;10223;50.862;4.360;2023-08-31T04:18:10;13.20;99.90
20125;DHT22;10223;50.862;4.360;2023-08-31T04:20:36;13.20;99.90
20125;DHT22;10223;50.862;4.360;2023-08-31T04:23:03;13.30;99.90
20125;DHT22;10223;50.862;4.360;2023-08-31T04:25:32;13.20;99.90
20125;DHT22;10223;50.862;4.360;2023-08-31T04:27:59;13.20;99.90
20125;DHT22;10223;50.862;4.360;2023-08-31T04:30:25;13.20;99.90
20125;DHT22;10223;50.862;4.360;2023-08-31T04:32:53;13.20;99.90
20125;DHT22;10223;50.862;4.360;2023-08-31T04:35:21;13.20;99.90
20125;DHT22;10223;50.862;4.360;2023-08-31T04:37:48;13.20;99.90
20125;DHT22;10223;50.862;4.360;2023-08-31T04:40:15;13.20;99.90
20125;DHT22;10223;50.862;4.360;2023-08-31T04:42:42;13.20;99.90
20125;DHT22;10223;50.862;4.360;2023-08-31T04:45:09;13.10;99.90
20125;DHT22;10223;50.862;4.360;2023-08-31T04:47:37;13.20;99.90
20125;DHT22;10223;50.862;4.360;2023-08-31T04:50:05;13.10;99.90
20125;DHT22;10223;50.862;4.360;2023-08-31T04:52:33;13.00;99.90
20125;DHT22;10223;50.862;4.360;2023-08-31T04:55:01;13.10;99.90
20125;DHT22;10223;50.862;4.360;2023-08-31T04:57:28;13.10;99.90
20125;DHT22;10223;50.862;4.360;2023-08-31T04:59:55;13.10;99.90
20125;DHT22;10223;50.862;4.360;2023-08-31T05:02:22;13.10;99.90
20125;DHT22;10223;50.862;4.360;2023-08-31T05:04:50;13.10;99.90
20125;DHT22;10223;50.862;4.360;2023-08-31T05:07:17;13.20;99.90
20125;DHT22;10223;50.862;4.360;2023-08-31T05:09:45;13.20;99.90
20125;DHT22;10223;50.862;4.360;2023-08-31T05:12:12;13.20;99.90
20125;DHT22;10223;50.862;4.360;2023-08-31T05:14:39;13.10;99.90
20125;DHT22;10223;50.862;4.360;2023-08-31T05:17:06;13.10;99.90
20125;DHT22;10223;50.862;4.360;2023-08-31T05:19:33;13.10;99.90
20125;DHT22;10223;50.862;4.360;2023-08-31T05:22:00;13.10;99.90
20125;DHT22;10223;50.862;4.360;2023-08-31T05:24:27;13.10;99.90
20125;DHT22;10223;50.862;4.360;2023-08-31T05:26:55;13.20;99.90
20125;DHT22;10223;50.862;4.360;2023-08-31T05:29:22;13.30;99.90
20125;DHT22;10223;50.862;4.360;2023-08-31T05:31:51;13.20;99.90
20125;DHT22;10223;50.862;4.360;2023-08-31T05:34:21;13.30;99.90
20125;DHT22;10223;50.862;4.360;2023-08-31T05:36:48;13.30;99.90
20125;DHT22;10223;50.862;4.360;2023-08-31T05:39:14;13.30;99.90
20125;DHT22;10223;50.862;4.360;2023-08-31T05:41:42;13.20;99.90
20125;DHT22;10223;50.862;4.360;2023-08-31T05:44:10;13.20;99.90
20125;DHT22;10223;50.862;4.360;2023-08-31T05:46:37;13.10;99.90
20125;DHT22;10223;50.862;4.360;2023-08-31T05:49:06;13.10;99.90
20125;DHT22;10223;50.862;4.360;2023-08-31T05:51:33;13.00;99.90
20125;DHT22;10223;50.862;4.360;2023-08-31T05:54:00;13.00;99.90
20125;DHT22;10223;50.862;4.360;2023-08-31T05:56:28;13.00;99.90
20125;DHT22;10223;50.862;4.360;2023-08-31T05:58:55;13.00;99.90
20125;DHT22;10223;50.862;4.360;2023-08-31T06:01:23;13.10;99.90
20125;DHT22;10223;50.862;4.360;2023-08-31T06:03:50;13.30;99.90
20125;DHT22;10223;50.862;4.360;2023-08-31T06:06:17;13.20;99.90
20125;DHT22;10223;50.862;4.360;2023-08-31T06:08:44;13.20;99.90
20125;DHT22;10223;50.862;4.360;2023-08-31T06:11:11;13.30;99.90
20125;DHT22;10223;50.862;4.360;2023-08-31T06:13:38;13.20;99.90
20125;DHT22;10223;50.862;4.360;2023-08-31T06:16:05;13.30;99.90
20125;DHT22;10223;50.862;4.360;2023-08-31T06:18:34;13.30;99.90
20125;DHT22;10223;50.862;4.360;2023-08-31T06:21:00;13.30;99.90
20125;DHT22;10223;50.862;4.360;2023-08-31T06:23:27;13.30;99.90
20125;DHT22;10223;50.862;4.360;2023-08-31T06:25:54;13.40;99.90
20125;DHT22;10223;50.862;4.360;2023-08-31T06:28:21;13.40;99.90
20125;DHT22;10223;50.862;4.360;2023-08-31T06:30:48;13.30;99.90
20125;DHT22;10223;50.862;4.360;2023-08-31T06:33:15;13.40;99.90
20125;DHT22;10223;50.862;4.360;2023-08-31T06:35:45;13.30;99.90
20125;DHT22;10223;50.862;4.360;2023-08-31T06:38:12;13.40;99.90
20125;DHT22;10223;50.862;4.360;2023-08-31T06:40:39;13.50;99.90
20125;DHT22;10223;50.862;4.360;2023-08-31T06:43:08;13.60;99.90
20125;DHT22;10223;50.862;4.360;2023-08-31T06:45:34;13.50;99.90
20125;DHT22;10223;50.862;4.360;2023-08-31T06:48:01;13.50;99.90
20125;DHT22;10223;50.862;4.360;2023-08-31T06:50:29;13.50;99.90
20125;DHT22;10223;50.862;4.360;2023-08-31T06:52:57;13.60;99.90
20125;DHT22;10223;50.862;4.360;2023-08-31T06:55:24;13.60;99.90
20125;DHT22;10223;50.862;4.360;2023-08-31T06:57:51;13.70;99.90
20125;DHT22;10223;50.862;4.360;2023-08-31T07:00:18;14.00;99.90
20125;DHT22;10223;50.862;4.360;2023-08-31T07:02:45;14.00;99.90
20125;DHT22;10223;50.862;4.360;2023-08-31T07:05:12;14.10;99.90
20125;DHT22;10223;50.862;4.360;2023-08-31T07:07:39;14.30;99.90
20125;DHT22;10223;50.862;4.360;2023-08-31T07:10:08;14.60;99.90
20125;DHT22;10223;50.862;4.360;2023-08-31T07:12:35;15.00;99.90
20125;DHT22;10223;50.862;4.360;2023-08-31T07:15:02;15.20;99.90
20125;DHT22;10223;50.862;4.360;2023-08-31T07:17:29;15.30;99.90
20125;DHT22;10223;50.862;4.360;2023-08-31T07:19:56;15.40;99.90
20125;DHT22;10223;50.862;4.360;2023-08-31T07:22:22;15.40;99.90
20125;DHT22;10223;50.862;4.360;2023-08-31T07:24:49;15.70;99.90
20125;DHT22;10223;50.862;4.360;2023-08-31T07:27:18;15.70;99.90
20125;DHT22;10223;50.862;4.360;2023-08-31T07:29:45;15.90;99.90
20125;DHT22;10223;50.862;4.360;2023-08-31T07:32:12;16.10;99.90
20125;DHT22;10223;50.862;4.360;2023-08-31T07:34:38;16.40;99.90
20125;DHT22;10223;50.862;4.360;2023-08-31T07:37:05;16.60;99.90
20125;DHT22;10223;50.862;4.360;2023-08-31T07:39:32;16.40;99.90
20125;DHT22;10223;50.862;4.360;2023-08-31T07:41:59;16.60;99.90
20125;DHT22;10223;50.862;4.360;2023-08-31T07:44:27;16.70;99.90
20125;DHT22;10223;50.862;4.360;2023-08-31T07:46:54;17.00;99.90
20125;DHT22;10223;50.862;4.360;2023-08-31T07:49:21;17.00;99.90
20125;DHT22;10223;50.862;4.360;2023-08-31T07:51:48;17.20;99.90
20125;DHT22;10223;50.862;4.360;2023-08-31T07:54:19;17.00;99.90
20125;DHT22;10223;50.862;4.360;2023-08-31T07:56:46;17.20;99.90
20125;DHT22;10223;50.862;4.360;2023-08-31T07:59:13;17.60;99.90
20125;DHT22;10223;50.862;4.360;2023-08-31T08:01:42;17.90;99.90
20125;DHT22;10223;50.862;4.360;2023-08-31T08:04:09;17.80;99.90
20125;DHT22;10223;50.862;4.360;2023-08-31T08:06:36;17.50;99.90
20125;DHT22;10223;50.862;4.360;2023-08-31T08:09:03;17.10;99.90
20125;DHT22;10223;50.862;4.360;2023-08-31T08:11:30;17.30;99.90
20125;DHT22;10223;50.862;4.360;2023-08-31T08:13:57;17.20;99.90
20125;DHT22;10223;50.862;4.360;2023-08-31T08:16:24;17.50;99.90
20125;DHT22;10223;50.862;4.360;2023-08-31T08:18:52;17.20;99.90
20125;DHT22;10223;50.862;4.360;2023-08-31T08:21:19;17.30;99.90
20125;DHT22;10223;50.862;4.360;2023-08-31T08:23:46;17.40;99.90
20125;DHT22;10223;50.862;4.360;2023-08-31T08:26:16;17.30;99.90
20125;DHT22;10223;50.862;4.360;2023-08-31T08:28:43;17.80;99.90
20125;DHT22;10223;50.862;4.360;2023-08-31T08:31:09;18.20;99.90
20125;DHT22;10223;50.862;4.360;2023-08-31T08:33:36;18.20;99.90
20125;DHT22;10223;50.862;4.360;2023-08-31T08:36:05;18.30;99.90
20125;DHT22;10223;50.862;4.360;2023-08-31T08:38:32;17.90;99.90
20125;DHT22;10223;50.862;4.360;2023-08-31T08:41:04;18.00;99.90
20125;DHT22;10223;50.862;4.360;2023-08-31T08:43:33;18.20;99.90
20125;DHT22;10223;50.862;4.360;2023-08-31T08:46:04;18.50;99.90
20125;DHT22;10223;50.862;4.360;2023-08-31T08:48:32;18.80;99.90
20125;DHT22;10223;50.862;4.360;2023-08-31T08:51:01;19.20;99.90
20125;DHT22;10223;50.862;4.360;2023-08-31T08:53:29;19.20;99.90
20125;DHT22;10223;50.862;4.360;2023-08-31T08:55:56;19.40;99.90
20125;DHT22;10223;50.862;4.360;2023-08-31T08:58:23;18.90;99.90
20125;DHT22;10223;50.862;4.360;2023-08-31T09:00:51;18.70;99.90
20125;DHT22;10223;50.862;4.360;2023-08-31T09:03:18;18.80;99.90
20125;DHT22;10223;50.862;4.360;2023-08-31T09:05:45;19.00;99.90
20125;DHT22;10223;50.862;4.360;2023-08-31T09:08:12;18.80;99.90
20125;DHT22;10223;50.862;4.360;2023-08-31T09:10:43;18.80;99.90
20125;DHT22;10223;50.862;4.360;2023-08-31T09:13:12;18.70;99.90
20125;DHT22;10223;50.862;4.360;2023-08-31T09:15:40;19.00;99.90
20125;DHT22;10223;50.862;4.360;2023-08-31T09:18:08;19.20;99.90
20125;DHT22;10223;50.862;4.360;2023-08-31T09:20:45;19.30;99.90
20125;DHT22;10223;50.862;4.360;2023-08-31T09:23:12;19.40;99.90
20125;DHT22;10223;50.862;4.360;2023-08-31T09:25:43;19.70;99.90
20125;DHT22;10223;50.862;4.360;2023-08-31T09:28:11;19.60;99.90
20125;DHT22;10223;50.862;4.360;2023-08-31T09:30:38;19.70;99.90
20125;DHT22;10223;50.862;4.360;2023-08-31T09:33:06;19.90;99.90
20125;DHT22;10223;50.862;4.360;2023-08-31T09:35:34;20.20;99.90
20125;DHT22;10223;50.862;4.360;2023-08-31T09:38:07;20.00;99.90
20125;DHT22;10223;50.862;4.360;2023-08-31T09:40:34;19.40;99.90
20125;DHT22;10223;50.862;4.360;2023-08-31T09:43:03;19.50;99.90
20125;DHT22;10223;50.862;4.360;2023-08-31T09:45:31;19.60;99.90
20125;DHT22;10223;50.862;4.360;2023-08-31T09:47:59;19.40;99.90
20125;DHT22;10223;50.862;4.360;2023-08-31T09:50:28;19.40;99.90
20125;DHT22;10223;50.862;4.360;2023-08-31T09:52:56;19.70;99.90
20125;DHT22;10223;50.862;4.360;2023-08-31T09:55:28;19.80;99.90
20125;DHT22;10223;50.862;4.360;2023-08-31T09:57:57;19.90;99.90
20125;DHT22;10223;50.862;4.360;2023-08-31T10:00:27;19.90;99.90
20125;DHT22;10223;50.862;4.360;2023-08-31T10:02:55;19.80;99.90
20125;DHT22;10223;50.862;4.360;2023-08-31T10:05:23;20.00;99.90
20125;DHT22;10223;50.862;4.360;2023-08-31T10:07:51;20.20;99.90
20125;DHT22;10223;50.862;4.360;2023-08-31T10:10:18;20.50;99.90
20125;DHT22;10223;50.862;4.360;2023-08-31T10:12:48;20.30;99.90
20125;DHT22;10223;50.862;4.360;2023-08-31T10:15:16;20.20;99.90
20125;DHT22;10223;50.862;4.360;2023-08-31T10:17:44;19.70;99.90
20125;DHT22;10223;50.862;4.360;2023-08-31T10:20:13;19.30;99.90
20125;DHT22;10223;50.862;4.360;2023-08-31T10:22:41;19.30;99.90
20125;DHT22;10223;50.862;4.360;2023-08-31T10:25:08;19.40;99.90
20125;DHT22;10223;50.862;4.360;2023-08-31T10:27:39;19.30;99.90
20125;DHT22;10223;50.862;4.360;2023-08-31T10:30:24;19.40;99.90
20125;DHT22;10223;50.862;4.360;2023-08-31T10:33:23;19.70;99.90
20125;DHT22;10223;50.862;4.360;2023-08-31T10:35:51;19.90;99.90
20125;DHT22;10223;50.862;4.360;2023-08-31T10:38:29;19.90;99.90
20125;DHT22;10223;50.862;4.360;2023-08-31T10:41:17;20.20;99.90
20125;DHT22;10223;50.862;4.360;2023-08-31T10:43:46;20.00;99.90
20125;DHT22;10223;50.862;4.360;2023-08-31T10:46:18;19.90;99.90
20125;DHT22;10223;50.862;4.360;2023-08-31T10:48:54;19.70;99.90
20125;DHT22;10223;50.862;4.360;2023-08-31T10:51:22;19.90;99.90
20125;DHT22;10223;50.862;4.360;2023-08-31T10:53:51;20.00;99.90
20125;DHT22;10223;50.862;4.360;2023-08-31T10:56:18;20.30;99.90
20125;DHT22;10223;50.862;4.360;2023-08-31T10:58:56;20.40;99.90
20125;DHT22;10223;50.862;4.360;2023-08-31T11:01:51;20.50;99.90
20125;DHT22;10223;50.862;4.360;2023-08-31T11:04:21;20.80;99.90
20125;DHT22;10223;50.862;4.360;2023-08-31T11:06:48;20.80;99.90
20125;DHT22;10223;50.862;4.360;2023-08-31T11:09:19;20.90;99.90
20125;DHT22;10223;50.862;4.360;2023-08-31T11:11:47;20.70;99.90
20125;DHT22;10223;50.862;4.360;2023-08-31T11:14:14;20.60;99.90
20125;DHT22;10223;50.862;4.360;2023-08-31T11:16:43;20.30;99.90
20125;DHT22;10223;50.862;4.360;2023-08-31T11:19:10;20.10;99.90
20125;DHT22;10223;50.862;4.360;2023-08-31T11:21:39;20.00;99.90
20125;DHT22;10223;50.862;4.360;2023-08-31T11:24:07;20.30;99.90
20125;DHT22;10223;50.862;4.360;2023-08-31T11:26:35;20.30;99.90
20125;DHT22;10223;50.862;4.360;2023-08-31T11:29:06;20.10;99.90
20125;DHT22;10223;50.862;4.360;2023-08-31T11:31:33;20.00;99.90
20125;DHT22;10223;50.862;4.360;2023-08-31T11:34:04;19.90;99.90
20125;DHT22;10223;50.862;4.360;2023-08-31T11:36:31;19.70;99.90
20125;DHT22;10223;50.862;4.360;2023-08-31T11:39:00;19.70;99.90
20125;DHT22;10223;50.862;4.360;2023-08-31T11:41:31;19.80;99.90
20125;DHT22;10223;50.862;4.360;2023-08-31T11:43:59;19.80;99.90
20125;DHT22;10223;50.862;4.360;2023-08-31T11:46:26;20.00;99.90
20125;DHT22;10223;50.862;4.360;2023-08-31T11:48:53;20.30;99.90
20125;DHT22;10223;50.862;4.360;2023-08-31T11:51:21;20.20;99.90
20125;DHT22;10223;50.862;4.360;2023-08-31T11:53:48;19.90;99.90
20125;DHT22;10223;50.862;4.360;2023-08-31T11:56:16;19.60;99.90
20125;DHT22;10223;50.862;4.360;2023-08-31T11:58:43;19.50;99.90
20125;DHT22;10223;50.862;4.360;2023-08-31T12:01:17;19.40;99.90
20125;DHT22;10223;50.862;4.360;2023-08-31T12:03:44;19.40;99.90
20125;DHT22;10223;50.862;4.360;2023-08-31T12:06:15;19.40;99.90
20125;DHT22;10223;50.862;4.360;2023-08-31T12:08:42;19.50;99.90
20125;DHT22;10223;50.862;4.360;2023-08-31T12:11:09;19.50;99.90
20125;DHT22;10223;50.862;4.360;2023-08-31T12:13:37;19.50;99.90
20125;DHT22;10223;50.862;4.360;2023-08-31T12:16:11;19.60;99.90
20125;DHT22;10223;50.862;4.360;2023-08-31T12:18:39;19.70;99.90
20125;DHT22;10223;50.862;4.360;2023-08-31T12:21:06;19.70;99.90
20125;DHT22;10223;50.862;4.360;2023-08-31T12:23:33;19.60;99.90
20125;DHT22;10223;50.862;4.360;2023-08-31T12:26:00;19.40;99.90
20125;DHT22;10223;50.862;4.360;2023-08-31T12:28:28;19.50;99.90
20125;DHT22;10223;50.862;4.360;2023-08-31T12:30:56;19.40;99.90
20125;DHT22;10223;50.862;4.360;2023-08-31T12:33:23;19.20;99.90
20125;DHT22;10223;50.862;4.360;2023-08-31T12:35:50;19.20;99.90
20125;DHT22;10223;50.862;4.360;2023-08-31T12:38:20;19.20;99.90
20125;DHT22;10223;50.862;4.360;2023-08-31T12:40:47;19.40;99.90
20125;DHT22;10223;50.862;4.360;2023-08-31T12:43:14;19.30;99.90
20125;DHT22;10223;50.862;4.360;2023-08-31T12:45:41;19.40;99.90
20125;DHT22;10223;50.862;4.360;2023-08-31T12:48:09;19.50;99.90
20125;DHT22;10223;50.862;4.360;2023-08-31T12:50:36;19.60;99.90
20125;DHT22;10223;50.862;4.360;2023-08-31T12:53:03;19.60;99.90
20125;DHT22;10223;50.862;4.360;2023-08-31T12:55:30;19.70;99.90
20125;DHT22;10223;50.862;4.360;2023-08-31T12:57:57;19.50;99.90
20125;DHT22;10223;50.862;4.360;2023-08-31T13:00:25;19.50;99.90
20125;DHT22;10223;50.862;4.360;2023-08-31T13:02:52;19.50;99.90
20125;DHT22;10223;50.862;4.360;2023-08-31T13:05:22;19.70;99.90
20125;DHT22;10223;50.862;4.360;2023-08-31T13:07:48;19.70;99.90
20125;DHT22;10223;50.862;4.360;2023-08-31T13:10:15;19.60;99.90
20125;DHT22;10223;50.862;4.360;2023-08-31T13:12:42;19.70;99.90
20125;DHT22;10223;50.862;4.360;2023-08-31T13:15:09;19.50;99.90
20125;DHT22;10223;50.862;4.360;2023-08-31T13:17:36;19.50;99.90
20125;DHT22;10223;50.862;4.360;2023-08-31T13:20:04;19.40;99.90
20125;DHT22;10223;50.862;4.360;2023-08-31T13:22:33;19.40;99.90
20125;DHT22;10223;50.862;4.360;2023-08-31T13:24:59;19.60;99.90
20125;DHT22;10223;50.862;4.360;2023-08-31T13:27:26;19.60;99.90
20125;DHT22;10223;50.862;4.360;2023-08-31T13:29:54;19.70;99.90
20125;DHT22;10223;50.862;4.360;2023-08-31T13:32:22;19.80;99.90
20125;DHT22;10223;50.862;4.360;2023-08-31T13:34:48;19.90;99.90
20125;DHT22;10223;50.862;4.360;2023-08-31T13:37:15;20.00;99.90
20125;DHT22;10223;50.862;4.360;2023-08-31T13:39:44;20.00;99.90
20125;DHT22;10223;50.862;4.360;2023-08-31T13:42:10;19.90;99.90
20125;DHT22;10223;50.862;4.360;2023-08-31T13:44:37;19.90;99.90
20125;DHT22;10223;50.862;4.360;2023-08-31T13:47:04;19.80;99.90
20125;DHT22;10223;50.862;4.360;2023-08-31T13:49:31;19.80;99.90
20125;DHT22;10223;50.862;4.360;2023-08-31T13:51:59;19.80;99.90
20125;DHT22;10223;50.862;4.360;2023-08-31T13:54:26;19.80;99.90
20125;DHT22;10223;50.862;4.360;2023-08-31T13:56:54;19.70;99.90
20125;DHT22;10223;50.862;4.360;2023-08-31T13:59:21;19.70;99.90
20125;DHT22;10223;50.862;4.360;2023-08-31T14:01:48;19.70;99.90
20125;DHT22;10223;50.862;4.360;2023-08-31T14:04:15;19.50;99.90
20125;DHT22;10223;50.862;4.360;2023-08-31T14:06:42;19.40;99.90
20125;DHT22;10223;50.862;4.360;2023-08-31T14:09:09;19.40;99.90
20125;DHT22;10223;50.862;4.360;2023-08-31T14:11:36;19.50;99.90
20125;DHT22;10223;50.862;4.360;2023-08-31T14:14:04;19.50;99.90
20125;DHT22;10223;50.862;4.360;2023-08-31T14:16:35;19.40;99.90
20125;DHT22;10223;50.862;4.360;2023-08-31T14:19:03;19.40;99.90
20125;DHT22;10223;50.862;4.360;2023-08-31T14:21:30;19.30;99.90
20125;DHT22;10223;50.862;4.360;2023-08-31T14:23:57;19.40;99.90
20125;DHT22;10223;50.862;4.360;2023-08-31T14:26:24;19.50;99.90
20125;DHT22;10223;50.862;4.360;2023-08-31T14:28:51;19.40;99.90
20125;DHT22;10223;50.862;4.360;2023-08-31T14:31:20;19.60;99.90
20125;DHT22;10223;50.862;4.360;2023-08-31T14:33:47;19.40;99.90
20125;DHT22;10223;50.862;4.360;2023-08-31T14:36:15;19.60;99.90
20125;DHT22;10223;50.862;4.360;2023-08-31T14:38:42;19.70;99.90
20125;DHT22;10223;50.862;4.360;2023-08-31T14:41:11;19.60;99.90
20125;DHT22;10223;50.862;4.360;2023-08-31T14:43:38;19.40;99.90
20125;DHT22;10223;50.862;4.360;2023-08-31T14:46:05;19.20;99.90
20125;DHT22;10223;50.862;4.360;2023-08-31T14:48:33;19.10;99.90
20125;DHT22;10223;50.862;4.360;2023-08-31T14:51:00;18.90;99.90
20125;DHT22;10223;50.862;4.360;2023-08-31T14:53:27;19.00;99.90
20125;DHT22;10223;50.862;4.360;2023-08-31T14:55:54;19.20;99.90
20125;DHT22;10223;50.862;4.360;2023-08-31T14:58:21;19.30;99.90
20125;DHT22;10223;50.862;4.360;2023-08-31T15:00:48;19.40;99.90
20125;DHT22;10223;50.862;4.360;2023-08-31T15:03:15;19.40;99.90
20125;DHT22;10223;50.862;4.360;2023-08-31T15:05:43;19.50;99.90
20125;DHT22;10223;50.862;4.360;2023-08-31T15:08:10;19.60;99.90
20125;DHT22;10223;50.862;4.360;2023-08-31T15:10:38;19.60;99.90
20125;DHT22;10223;50.862;4.360;2023-08-31T15:13:05;19.60;99.90
20125;DHT22;10223;50.862;4.360;2023-08-31T15:15:32;19.40;99.90
20125;DHT22;10223;50.862;4.360;2023-08-31T15:17:59;19.30;99.90
20125;DHT22;10223;50.862;4.360;2023-08-31T15:20:27;19.30;99.90
20125;DHT22;10223;50.862;4.360;2023-08-31T15:22:55;19.20;99.90
20125;DHT22;10223;50.862;4.360;2023-08-31T15:25:22;19.10;99.90
20125;DHT22;10223;50.862;4.360;2023-08-31T15:27:49;19.10;99.90
20125;DHT22;10223;50.862;4.360;2023-08-31T15:30:16;19.00;99.90
20125;DHT22;10223;50.862;4.360;2023-08-31T15:32:42;19.00;99.90
20125;DHT22;10223;50.862;4.360;2023-08-31T15:35:09;18.90;99.90